Time;durP1;ratioP1;P1;durP2;ratioP2;P2;SDS_P1;SDS_P2;PMS_P1;PMS_P2;Temp;Humidity;BMP_temperature;BMP_pressure;BME280_temperature;BME280_humidity;BME280_pressure;Samples;Min_cycle;Max_cycle;Signal;HPM_P1;HPM_P2
2021/07/31 00:01:55;;;;;;;6.95;4.90;;;21.60;99.90;;;;;;5052715;28;20213;-68
2021/07/31 00:04:23;;;;;;;6.22;4.25;;;21.50;99.90;;;;;;5052238;28;20227;-63
2021/07/31 00:06:50;;;;;;;5.40;3.90;;;21.30;99.90;;;;;;5052424;28;20209;-62
2021/07/31 00:09:17;;;;;;;4.35;3.95;;;21.20;99.90;;;;;;5052118;28;20229;-62
2021/07/31 00:11:44;;;;;;;4.57;3.33;;;21.20;99.90;;;;;;5052061;28;20208;-62
2021/07/31 00:14:10;;;;;;;4.18;3.78;;;21.20;99.90;;;;;;5052085;28;20221;-62
2021/07/31 00:16:37;;;;;;;3.97;3.40;;;21.20;99.90;;;;;;5052253;28;20201;-62
2021/07/31 00:19:04;;;;;;;4.28;3.53;;;21.20;99.90;;;;;;5051926;28;20302;-63
2021/07/31 00:21:32;;;;;;;7.15;3.40;;;21.20;99.90;;;;;;5051971;28;20217;-62
2021/07/31 00:23:58;;;;;;;4.63;3.40;;;21.30;99.90;;;;;;5051605;28;20216;-62
2021/07/31 00:26:25;;;;;;;4.47;3.30;;;21.40;99.90;;;;;;5051504;28;20256;-62
2021/07/31 00:28:52;;;;;;;3.60;3.20;;;21.40;99.90;;;;;;5051682;28;20245;-63
2021/07/31 00:31:18;;;;;;;4.10;3.40;;;21.50;99.90;;;;;;5051720;28;20201;-62
2021/07/31 00:33:45;;;;;;;6.00;3.45;;;21.50;99.90;;;;;;5051563;28;20299;-62
2021/07/31 00:36:12;;;;;;;4.82;3.60;;;21.60;99.90;;;;;;5051565;28;20210;-62
2021/07/31 00:38:40;;;;;;;4.70;3.30;;;21.60;99.90;;;;;;5051037;28;20236;-62
2021/07/31 00:41:06;;;;;;;4.57;3.08;;;21.70;99.90;;;;;;5051301;28;20209;-62
2021/07/31 00:43:33;;;;;;;4.18;3.30;;;21.70;99.90;;;;;;5051411;28;20607;-62
2021/07/31 00:46:00;;;;;;;6.68;3.03;;;21.70;99.90;;;;;;5051404;28;20621;-62
2021/07/31 00:48:27;;;;;;;3.80;3.10;;;21.80;99.90;;;;;;5051279;28;20233;-62
2021/07/31 00:50:53;;;;;;;3.78;3.05;;;21.80;99.90;;;;;;5051240;28;20727;-63
2021/07/31 00:53:21;;;;;;;6.57;3.00;;;21.80;99.90;;;;;;5050647;28;20213;-62
2021/07/31 00:55:50;;;;;;;4.10;3.00;;;21.90;99.90;;;;;;5051171;28;20202;-62
2021/07/31 00:58:18;;;;;;;3.78;2.90;;;22.00;99.90;;;;;;5051056;28;20236;-63
2021/07/31 01:00:45;;;;;;;4.53;2.78;;;22.00;99.90;;;;;;5051467;28;20585;-62
2021/07/31 01:03:11;;;;;;;3.33;2.40;;;21.90;99.90;;;;;;5051114;28;20209;-63
2021/07/31 01:05:38;;;;;;;5.68;2.75;;;21.90;99.90;;;;;;5050836;28;20221;-62
2021/07/31 01:08:05;;;;;;;3.80;2.50;;;22.00;99.90;;;;;;5050757;28;20613;-62
2021/07/31 01:10:32;;;;;;;4.72;2.65;;;21.90;99.90;;;;;;5051035;28;20209;-62
2021/07/31 01:13:03;;;;;;;4.22;2.20;;;21.90;99.90;;;;;;5051281;28;20206;-62
2021/07/31 01:15:29;;;;;;;4.20;2.22;;;21.90;99.90;;;;;;5051076;28;20379;-62
2021/07/31 01:17:56;;;;;;;7.10;2.40;;;21.90;99.90;;;;;;5051002;28;20607;-63
2021/07/31 01:20:24;;;;;;;7.28;3.65;;;21.80;99.90;;;;;;5051070;28;20206;-62
2021/07/31 01:22:52;;;;;;;7.22;3.28;;;21.80;99.90;;;;;;5051468;28;20260;-61
2021/07/31 01:25:20;;;;;;;1.75;1.60;;;21.80;99.90;;;;;;5051119;28;20221;-62
2021/07/31 01:27:47;;;;;;;4.13;2.20;;;21.80;99.90;;;;;;5050870;28;20234;-62
2021/07/31 01:30:14;;;;;;;5.70;2.10;;;21.80;99.90;;;;;;5050719;28;20205;-62
2021/07/31 01:32:40;;;;;;;3.80;2.10;;;21.80;99.90;;;;;;5050872;28;20205;-63
2021/07/31 01:35:08;;;;;;;3.78;1.67;;;21.70;99.90;;;;;;5050754;28;20202;-62
2021/07/31 01:37:35;;;;;;;4.82;1.80;;;21.70;99.90;;;;;;5050453;28;20263;-63
2021/07/31 01:40:03;;;;;;;2.75;1.98;;;21.70;99.90;;;;;;5050468;28;20209;-62
2021/07/31 01:42:30;;;;;;;2.83;1.92;;;21.80;99.90;;;;;;5050755;28;20217;-62
2021/07/31 01:44:57;;;;;;;2.58;1.98;;;21.70;99.90;;;;;;5050390;28;20696;-62
2021/07/31 01:47:23;;;;;;;1.85;1.65;;;21.80;99.90;;;;;;5050457;28;20202;-62
2021/07/31 01:49:50;;;;;;;4.43;1.90;;;21.80;99.90;;;;;;5050430;28;20210;-62
2021/07/31 01:52:16;;;;;;;4.60;1.80;;;21.80;99.90;;;;;;5050637;28;20212;-62
2021/07/31 01:54:43;;;;;;;5.20;1.90;;;21.80;99.90;;;;;;5050672;28;20206;-63
2021/07/31 01:57:11;;;;;;;3.17;1.60;;;21.70;99.90;;;;;;5050391;28;20198;-62
2021/07/31 01:59:38;;;;;;;4.82;1.85;;;21.80;99.90;;;;;;5050179;28;20230;-63
2021/07/31 02:02:05;;;;;;;3.72;1.50;;;21.80;99.90;;;;;;5050401;28;20210;-63
2021/07/31 02:04:33;;;;;;;2.95;1.52;;;21.80;99.90;;;;;;5050624;28;20201;-62
2021/07/31 02:07:00;;;;;;;3.42;1.70;;;21.80;99.90;;;;;;5054414;28;20225;-63
2021/07/31 02:09:27;;;;;;;3.25;1.90;;;21.80;99.90;;;;;;5054123;28;20639;-63
2021/07/31 02:11:53;;;;;;;6.00;2.05;;;21.80;99.90;;;;;;5054412;28;20217;-62
2021/07/31 02:14:22;;;;;;;4.90;1.60;;;21.80;99.90;;;;;;5054106;28;20205;-63
2021/07/31 02:16:48;;;;;;;2.58;1.50;;;21.70;99.90;;;;;;5054418;28;20202;-62
2021/07/31 02:19:15;;;;;;;3.60;1.60;;;21.60;99.90;;;;;;5054213;28;20271;-63
2021/07/31 02:21:42;;;;;;;2.80;1.50;;;21.70;99.90;;;;;;5054465;28;20205;-63
2021/07/31 02:24:08;;;;;;;3.40;1.58;;;21.60;99.90;;;;;;5054020;28;20214;-63
2021/07/31 02:26:35;;;;;;;3.63;1.38;;;21.60;99.90;;;;;;5054018;28;20226;-63
2021/07/31 02:29:02;;;;;;;5.47;1.40;;;21.60;99.90;;;;;;5054329;28;20229;-63
2021/07/31 02:31:30;;;;;;;5.55;1.65;;;21.60;99.90;;;;;;5054046;28;20205;-63
2021/07/31 02:33:57;;;;;;;2.10;1.20;;;21.50;99.90;;;;;;5053915;28;20255;-63
2021/07/31 02:36:23;;;;;;;2.60;1.30;;;21.40;99.90;;;;;;5053783;28;20208;-63
2021/07/31 02:38:50;;;;;;;3.60;1.40;;;21.40;99.90;;;;;;5053765;28;20244;-63
2021/07/31 02:41:17;;;;;;;2.83;1.20;;;21.40;99.90;;;;;;5054190;28;20209;-63
2021/07/31 02:43:44;;;;;;;4.70;1.50;;;21.30;99.90;;;;;;5055407;28;20213;-62
2021/07/31 02:46:11;;;;;;;2.90;1.30;;;21.20;99.90;;;;;;5054866;28;20237;-62
2021/07/31 02:48:39;;;;;;;5.68;1.35;;;21.10;99.90;;;;;;5053637;28;20291;-62
2021/07/31 02:51:07;;;;;;;3.45;1.35;;;20.90;99.90;;;;;;5053477;28;20205;-62
2021/07/31 02:53:34;;;;;;;4.68;1.55;;;20.80;99.90;;;;;;5053371;28;20309;-63
2021/07/31 02:56:01;;;;;;;2.40;1.13;;;20.70;99.90;;;;;;5053490;28;20205;-63
2021/07/31 02:58:27;;;;;;;4.35;1.35;;;20.60;99.90;;;;;;5053087;28;20286;-62
2021/07/31 03:00:54;;;;;;;5.63;1.35;;;20.50;99.90;;;;;;5053100;28;20614;-62
2021/07/31 03:03:21;;;;;;;5.80;1.38;;;20.40;99.90;;;;;;5053121;28;20678;-62
2021/07/31 03:05:56;;;;;;;8.40;1.60;;;20.40;99.90;;;;;;5052873;28;20217;-62
2021/07/31 03:08:22;;;;;;;3.55;1.50;;;20.30;99.90;;;;;;5052874;28;20708;-62
2021/07/31 03:10:54;;;;;;;4.18;1.60;;;20.30;99.90;;;;;;5053664;28;20210;-62
2021/07/31 03:13:21;;;;;;;3.33;1.40;;;20.10;99.90;;;;;;5053551;28;20209;-63
2021/07/31 03:15:48;;;;;;;3.33;1.27;;;20.00;99.90;;;;;;5053082;28;20206;-62
2021/07/31 03:18:15;;;;;;;3.63;1.55;;;19.80;99.90;;;;;;5053161;28;20230;-63
2021/07/31 03:20:46;;;;;;;1.92;1.15;;;19.80;99.90;;;;;;5053393;28;20202;-62
2021/07/31 03:23:14;;;;;;;2.22;1.42;;;19.70;99.90;;;;;;5053646;28;20558;-62
2021/07/31 03:25:41;;;;;;;3.85;1.55;;;19.60;99.90;;;;;;5052958;28;20240;-62
2021/07/31 03:28:08;;;;;;;3.03;1.45;;;19.50;99.90;;;;;;5052693;28;20221;-62
2021/07/31 03:30:39;;;;;;;5.07;1.58;;;19.40;99.90;;;;;;5052809;28;20201;-62
2021/07/31 03:33:05;;;;;;;3.97;1.40;;;19.30;99.90;;;;;;5052824;28;20210;-62
2021/07/31 03:35:32;;;;;;;3.17;1.30;;;19.20;99.90;;;;;;5052477;28;20605;-62
2021/07/31 03:37:59;;;;;;;6.88;1.45;;;19.00;99.90;;;;;;5079659;22;20671;-59
2021/07/31 03:40:27;;;;;;;2.63;1.42;;;18.90;99.90;;;;;;5093018;28;20212;-60
2021/07/31 03:42:53;;;;;;;2.72;1.38;;;18.90;99.90;;;;;;5092973;28;20250;-60
2021/07/31 03:45:20;;;;;;;4.32;1.50;;;18.80;99.90;;;;;;5093239;28;20212;-60
2021/07/31 03:47:47;;;;;;;4.10;1.52;;;18.70;99.90;;;;;;5092615;28;20235;-62
2021/07/31 03:50:14;;;;;;;3.72;2.00;;;18.70;99.90;;;;;;5092764;28;20211;-60
2021/07/31 03:52:40;;;;;;;8.38;4.70;;;18.60;99.90;;;;;;5092870;28;20208;-60
2021/07/31 03:55:08;;;;;;;5.78;1.70;;;18.50;99.90;;;;;;5093128;28;20200;-61
2021/07/31 03:57:36;;;;;;;5.20;1.90;;;18.50;99.90;;;;;;5092638;28;20204;-61
2021/07/31 04:00:03;;;;;;;5.97;2.10;;;18.40;99.90;;;;;;5092498;28;20232;-61
2021/07/31 04:02:30;;;;;;;6.25;2.25;;;18.40;99.90;;;;;;5092492;28;20204;-61
2021/07/31 04:04:57;;;;;;;4.95;2.05;;;18.40;99.90;;;;;;5092139;28;20694;-61
2021/07/31 04:07:25;;;;;;;4.82;2.00;;;18.30;99.90;;;;;;5092391;28;20644;-61
2021/07/31 04:09:51;;;;;;;7.72;2.28;;;18.30;99.90;;;;;;5092051;28;20726;-61
2021/07/31 04:12:18;;;;;;;7.35;2.60;;;18.30;99.90;;;;;;5092299;28;20709;-61
2021/07/31 04:14:47;;;;;;;3.83;2.00;;;18.30;99.90;;;;;;5092190;28;20210;-61
2021/07/31 04:17:13;;;;;;;6.88;2.03;;;18.30;99.90;;;;;;5092211;28;20246;-62
2021/07/31 04:19:40;;;;;;;5.07;2.67;;;18.30;99.90;;;;;;5091871;28;20270;-61
2021/07/31 04:22:07;;;;;;;5.72;2.53;;;18.30;99.90;;;;;;5092364;28;20634;-61
2021/07/31 04:24:36;;;;;;;11.98;8.13;;;18.30;99.90;;;;;;5092004;28;20200;-61
2021/07/31 04:27:04;;;;;;;7.45;2.20;;;18.30;99.90;;;;;;5091943;28;20281;-61
2021/07/31 04:29:31;;;;;;;4.68;1.95;;;18.30;99.90;;;;;;5091509;28;20726;-60
2021/07/31 04:31:59;;;;;;;5.15;2.17;;;18.30;99.90;;;;;;5091999;28;20204;-61
2021/07/31 04:34:28;;;;;;;4.22;1.50;;;18.40;99.90;;;;;;5091762;28;20208;-60
2021/07/31 04:36:55;;;;;;;7.10;2.40;;;18.40;99.90;;;;;;5092100;28;20666;-61
2021/07/31 04:39:22;;;;;;;4.53;2.33;;;18.40;99.90;;;;;;5091422;28;20239;-61
2021/07/31 04:41:49;;;;;;;4.63;2.33;;;18.50;99.90;;;;;;5091682;28;20200;-62
2021/07/31 04:44:16;;;;;;;8.35;4.57;;;18.50;99.90;;;;;;5091646;28;20200;-61
2021/07/31 04:46:43;;;;;;;7.15;3.25;;;18.50;99.90;;;;;;5091410;28;20224;-61
2021/07/31 04:49:11;;;;;;;4.45;1.92;;;18.60;99.90;;;;;;5091411;28;20790;-62
2021/07/31 04:51:37;;;;;;;6.53;3.95;;;18.50;99.90;;;;;;5091616;28;20724;-61
2021/07/31 04:54:04;;;;;;;4.43;1.50;;;18.60;99.90;;;;;;5091346;28;20208;-61
2021/07/31 04:56:30;;;;;;;3.53;1.60;;;18.60;99.90;;;;;;5091654;28;20685;-60
2021/07/31 04:58:57;;;;;;;3.65;1.55;;;18.60;99.90;;;;;;5091221;28;20224;-61
2021/07/31 05:01:24;;;;;;;13.80;3.92;;;18.60;99.90;;;;;;5091403;28;20238;-61
2021/07/31 05:03:50;;;;;;;4.50;2.22;;;18.70;99.90;;;;;;5091970;28;20204;-61
2021/07/31 05:06:18;;;;;;;9.25;3.10;;;18.70;99.90;;;;;;5092150;28;20224;-61
2021/07/31 05:08:45;;;;;;;4.13;1.73;;;18.90;99.90;;;;;;5091344;28;20614;-61
2021/07/31 05:11:12;;;;;;;3.65;1.92;;;18.90;99.90;;;;;;5091717;28;20269;-61
2021/07/31 05:13:38;;;;;;;5.35;2.40;;;19.00;99.90;;;;;;5091283;28;20208;-61
2021/07/31 05:16:06;;;;;;;8.70;1.50;;;19.10;99.90;;;;;;5091386;28;20584;-61
2021/07/31 05:18:32;;;;;;;2.58;1.67;;;19.10;99.90;;;;;;5090991;28;20566;-61
2021/07/31 05:20:59;;;;;;;5.80;1.80;;;19.20;99.90;;;;;;5091332;28;20204;-61
2021/07/31 05:23:27;;;;;;;6.22;2.22;;;19.30;99.90;;;;;;5091020;28;20200;-61
2021/07/31 05:25:54;;;;;;;4.78;1.90;;;19.40;99.90;;;;;;5091048;28;20204;-61
2021/07/31 05:28:20;;;;;;;4.05;1.80;;;19.40;99.90;;;;;;5091058;28;20224;-61
2021/07/31 05:30:47;;;;;;;7.80;1.67;;;19.60;99.90;;;;;;5091341;28;20212;-61
2021/07/31 05:33:14;;;;;;;3.10;1.50;;;19.70;99.90;;;;;;5091210;28;20204;-60
2021/07/31 05:35:40;;;;;;;4.28;1.50;;;19.90;99.90;;;;;;5090897;28;20212;-60
2021/07/31 05:38:07;;;;;;;4.93;1.70;;;20.00;99.90;;;;;;5090735;28;20247;-60
2021/07/31 05:40:35;;;;;;;4.28;1.98;;;21.00;99.90;;;;;;5095743;28;20231;-60
2021/07/31 05:43:02;;;;;;;3.15;1.90;;;22.20;99.90;;;;;;5097487;28;20288;-61
2021/07/31 05:45:28;;;;;;;8.45;4.90;;;22.60;99.90;;;;;;5097728;28;20332;-60
2021/07/31 05:47:57;;;;;;;4.88;2.10;;;22.70;99.90;;;;;;5097139;28;20276;-61
2021/07/31 05:50:24;;;;;;;6.32;2.20;;;23.10;99.90;;;;;;5097621;28;20204;-61
2021/07/31 05:52:51;;;;;;;3.38;1.52;;;24.80;99.90;;;;;;5097521;28;20291;-61
2021/07/31 05:55:18;;;;;;;4.60;1.90;;;26.70;97.40;;;;;;5097147;28;20259;-61
2021/07/31 05:57:46;;;;;;;3.28;1.60;;;28.50;93.90;;;;;;5097587;28;20208;-62
2021/07/31 06:00:14;;;;;;;4.22;1.50;;;30.20;87.10;;;;;;5097709;28;20208;-62
2021/07/31 06:02:40;;;;;;;3.05;1.50;;;31.50;77.20;;;;;;5097328;28;20675;-62
2021/07/31 06:05:08;;;;;;;2.50;1.17;;;31.90;72.50;;;;;;5097359;28;20584;-62
2021/07/31 06:07:35;;;;;;;6.18;1.80;;;32.70;69.90;;;;;;5097138;28;20704;-62
2021/07/31 06:10:02;;;;;;;3.10;1.33;;;33.80;66.20;;;;;;5097012;28;20229;-62
2021/07/31 06:12:28;;;;;;;3.75;1.58;;;34.70;59.90;;;;;;5097565;28;20630;-62
2021/07/31 06:14:56;;;;;;;3.33;1.48;;;34.70;57.40;;;;;;5097336;28;20695;-62
2021/07/31 06:17:23;;;;;;;3.53;1.70;;;34.90;56.30;;;;;;5097219;28;20869;-62
2021/07/31 06:19:49;;;;;;;7.45;1.67;;;35.60;55.30;;;;;;5097407;28;20227;-62
2021/07/31 06:22:16;;;;;;;4.35;1.25;;;36.10;53.20;;;;;;5097314;28;20233;-62
2021/07/31 06:24:43;;;;;;;5.75;1.60;;;36.60;51.20;;;;;;5097005;28;20208;-63
2021/07/31 06:27:09;;;;;;;3.45;1.30;;;36.70;50.80;;;;;;5097739;28;20227;-62
2021/07/31 06:29:36;;;;;;;16.50;1.58;;;36.80;49.70;;;;;;5097493;28;20224;-62
2021/07/31 06:32:05;;;;;;;4.57;1.45;;;37.20;48.50;;;;;;5097778;28;20208;-62
2021/07/31 06:34:32;;;;;;;3.33;1.52;;;37.50;47.80;;;;;;5097182;28;20253;-62
2021/07/31 06:36:58;;;;;;;4.30;1.38;;;37.80;48.00;;;;;;5097033;28;20200;-62
2021/07/31 06:39:27;;;;;;;5.38;1.60;;;38.00;47.30;;;;;;5096907;28;20243;-62
2021/07/31 06:41:53;;;;;;;5.53;1.35;;;38.60;46.30;;;;;;5097214;28;20203;-62
2021/07/31 06:44:20;;;;;;;6.43;2.10;;;38.70;45.20;;;;;;5096953;28;20687;-62
2021/07/31 06:46:47;;;;;;;2.85;1.50;;;38.70;44.60;;;;;;5096983;28;20228;-62
2021/07/31 06:49:15;;;;;;;5.88;1.90;;;38.30;45.00;;;;;;5096959;28;20273;-62
2021/07/31 06:51:41;;;;;;;5.15;1.60;;;38.10;45.60;;;;;;5095335;28;20203;-62
2021/07/31 06:54:08;;;;;;;2.92;1.40;;;38.10;45.30;;;;;;5093789;28;20237;-62
2021/07/31 06:56:35;;;;;;;3.45;1.63;;;38.40;44.90;;;;;;5093702;28;20227;-62
2021/07/31 06:59:02;;;;;;;6.93;1.48;;;38.40;44.40;;;;;;5093535;28;20320;-62
2021/07/31 07:01:29;;;;;;;4.72;3.00;;;38.70;44.10;;;;;;5094067;28;20208;-63
2021/07/31 07:03:55;;;;;;;3.35;1.80;;;39.30;43.70;;;;;;5093433;28;20613;-67
2021/07/31 07:06:23;;;;;;;4.60;2.08;;;39.70;43.50;;;;;;5094381;28;20220;-68
2021/07/31 07:08:50;;;;;;;5.00;1.60;;;39.80;42.20;;;;;;5094651;28;20254;-67
2021/07/31 07:11:18;;;;;;;2.95;1.38;;;40.00;42.10;;;;;;5094306;28;20648;-65
2021/07/31 07:13:44;;;;;;;5.78;1.27;;;40.30;41.60;;;;;;5094004;28;20208;-63
2021/07/31 07:16:11;;;;;;;5.93;1.45;;;40.60;40.70;;;;;;5094258;28;20200;-65
2021/07/31 07:18:38;;;;;;;4.28;1.48;;;41.20;40.20;;;;;;5093181;28;20265;-63
2021/07/31 07:21:05;;;;;;;3.92;1.30;;;41.80;39.20;;;;;;5093726;28;20204;-63
2021/07/31 07:23:34;;;;;;;5.28;1.20;;;42.20;38.40;;;;;;5093731;28;20204;-63
2021/07/31 07:26:00;;;;;;;5.03;1.90;;;42.70;37.50;;;;;;5093856;28;20675;-63
2021/07/31 07:28:27;;;;;;;5.95;1.83;;;43.00;37.50;;;;;;5093113;28;20230;-64
2021/07/31 07:30:54;;;;;;;3.95;1.35;;;43.40;36.70;;;;;;5093690;28;20553;-64
2021/07/31 07:33:21;;;;;;;4.57;1.25;;;43.80;36.40;;;;;;5093352;28;20689;-64
2021/07/31 07:35:47;;;;;;;4.78;1.52;;;43.90;35.60;;;;;;5093019;28;20210;-63
2021/07/31 07:38:14;;;;;;;4.80;1.42;;;43.90;35.70;;;;;;5092955;28;20255;-63
2021/07/31 07:40:43;;;;;;;2.60;1.17;;;44.00;34.90;;;;;;5093160;28;20239;-64
2021/07/31 07:43:09;;;;;;;4.32;2.00;;;43.90;35.00;;;;;;5093316;28;20261;-64
2021/07/31 07:45:36;;;;;;;3.40;1.50;;;43.80;35.10;;;;;;5092896;28;20208;-64
2021/07/31 07:48:06;;;;;;;6.57;1.40;;;43.50;35.10;;;;;;5092820;28;20231;-64
2021/07/31 07:50:33;;;;;;;5.78;1.42;;;43.30;35.00;;;;;;5093645;28;20253;-64
2021/07/31 07:52:59;;;;;;;3.10;1.30;;;42.80;35.90;;;;;;5093729;28;20210;-64
2021/07/31 07:55:26;;;;;;;4.35;1.52;;;42.60;35.80;;;;;;5092977;28;20211;-64
2021/07/31 07:57:54;;;;;;;4.60;1.42;;;42.40;35.80;;;;;;5092622;28;20204;-63
2021/07/31 08:00:21;;;;;;;3.20;1.63;;;42.10;36.20;;;;;;5092636;28;20234;-63
2021/07/31 08:02:48;;;;;;;3.97;1.50;;;41.30;36.80;;;;;;5092485;28;20211;-63
2021/07/31 08:05:15;;;;;;;3.78;1.33;;;40.70;36.40;;;;;;5092604;28;20204;-64
2021/07/31 08:07:43;;;;;;;2.55;1.33;;;40.30;37.10;;;;;;5092356;28;20224;-64
2021/07/31 08:10:11;;;;;;;3.08;1.35;;;40.30;36.90;;;;;;5083759;28;20949;-65
2021/07/31 08:12:38;;;;;;;4.40;1.45;;;40.60;36.30;;;;;;5073325;28;20276;-66
2021/07/31 08:15:07;;;;;;;3.78;1.60;;;40.40;36.30;;;;;;5072758;28;20201;-64
2021/07/31 08:17:33;;;;;;;2.00;1.40;;;39.80;36.80;;;;;;5072558;28;20617;-68
2021/07/31 08:20:00;;;;;;;4.25;1.42;;;39.80;36.50;;;;;;5072583;28;20232;-64
2021/07/31 08:22:27;;;;;;;5.80;1.20;;;39.80;36.80;;;;;;5072388;28;20316;-63
2021/07/31 08:24:54;;;;;;;3.97;1.27;;;39.90;37.10;;;;;;5072428;28;20219;-68
2021/07/31 08:27:21;;;;;;;5.35;1.38;;;40.50;36.20;;;;;;5072026;28;20221;-65
2021/07/31 08:29:47;;;;;;;2.33;1.33;;;40.80;35.40;;;;;;5072163;28;20319;-65
2021/07/31 08:32:15;;;;;;;2.03;1.23;;;41.20;35.60;;;;;;5071965;28;20361;-67
2021/07/31 08:34:42;;;;;;;2.97;1.27;;;41.60;34.90;;;;;;5071823;28;20309;-67
2021/07/31 08:37:10;;;;;;;3.22;1.30;;;42.00;34.50;;;;;;5072071;28;20212;-68
2021/07/31 08:39:37;;;;;;;5.25;1.35;;;41.90;34.50;;;;;;5070366;28;20457;-67
2021/07/31 08:42:05;;;;;;;2.88;1.33;;;40.50;35.90;;;;;;5071710;28;20247;-65
2021/07/31 08:44:34;;;;;;;3.88;1.17;;;39.20;37.00;;;;;;5071938;28;20212;-66
2021/07/31 08:47:04;;;;;;;5.03;1.25;;;38.00;38.30;;;;;;5071882;28;20296;-66
2021/07/31 08:49:34;;;;;;;4.05;1.40;;;36.80;39.60;;;;;;5071625;28;20263;-66
2021/07/31 08:52:02;;;;;;;5.32;1.48;;;35.60;41.00;;;;;;5071712;28;20233;-65
2021/07/31 08:54:29;;;;;;;4.72;1.63;;;34.60;41.90;;;;;;5071240;28;20259;-66
2021/07/31 08:56:56;;;;;;;5.78;1.58;;;33.70;43.10;;;;;;5071646;28;20730;-66
2021/07/31 08:59:26;;;;;;;2.72;1.30;;;32.80;44.30;;;;;;5071388;28;20251;-65
2021/07/31 09:01:53;;;;;;;4.30;1.40;;;32.10;45.70;;;;;;5072077;28;20255;-69
2021/07/31 09:04:20;;;;;;;4.05;1.80;;;31.70;46.60;;;;;;5070940;28;20295;-67
2021/07/31 09:06:48;;;;;;;3.95;1.42;;;31.30;47.90;;;;;;5071491;28;20212;-67
2021/07/31 09:09:23;;;;;;;7.70;1.35;;;30.70;49.30;;;;;;5070888;28;20232;-65
2021/07/31 09:11:57;;;;;;;5.63;1.38;;;30.30;49.40;;;;;;5071570;28;20204;-68
2021/07/31 09:14:24;;;;;;;7.28;1.55;;;29.60;50.80;;;;;;5071011;28;20209;-68
2021/07/31 09:16:51;;;;;;;4.85;1.40;;;29.30;52.00;;;;;;5071654;28;20211;-67
2021/07/31 09:19:18;;;;;;;5.53;1.45;;;29.20;52.40;;;;;;5071514;28;20289;-66
2021/07/31 09:21:46;;;;;;;4.50;1.45;;;28.90;52.50;;;;;;5071145;28;20240;-65
2021/07/31 09:24:20;;;;;;;4.53;1.27;;;28.70;53.50;;;;;;5071370;28;20209;-66
2021/07/31 09:26:49;;;;;;;5.43;1.73;;;28.60;54.10;;;;;;5071354;28;20205;-67
2021/07/31 09:29:18;;;;;;;2.78;1.23;;;28.40;54.60;;;;;;5071087;28;20224;-66
2021/07/31 09:31:54;;;;;;;3.05;1.27;;;28.20;54.40;;;;;;5071240;28;20264;-66
2021/07/31 09:34:27;;;;;;;4.60;1.42;;;28.00;55.10;;;;;;5071198;28;20196;-65
2021/07/31 09:37:06;;;;;;;3.88;1.80;;;28.00;55.10;;;;;;5071153;28;20209;-65
2021/07/31 09:39:56;;;;;;;6.00;1.60;;;27.90;55.10;;;;;;5105839;22;20250;-61
2021/07/31 09:42:33;;;;;;;2.58;1.02;;;27.80;55.50;;;;;;5090597;28;20204;-61
2021/07/31 09:45:01;;;;;;;4.22;1.52;;;27.70;56.20;;;;;;5090652;28;20204;-62
2021/07/31 09:47:28;;;;;;;5.10;1.50;;;27.40;56.30;;;;;;5090841;28;20211;-61
2021/07/31 09:49:58;;;;;;;3.80;1.25;;;27.30;56.70;;;;;;5090758;28;20235;-61
2021/07/31 09:52:25;;;;;;;2.47;1.17;;;27.10;57.50;;;;;;5090915;28;20219;-61
2021/07/31 09:54:56;;;;;;;3.83;1.48;;;27.00;57.90;;;;;;5090631;28;20675;-61
2021/07/31 09:57:25;;;;;;;5.72;1.67;;;27.40;57.00;;;;;;5090929;28;20258;-61
2021/07/31 09:59:55;;;;;;;3.83;1.17;;;27.80;56.60;;;;;;5090939;28;20232;-60
2021/07/31 10:02:22;;;;;;;9.77;3.67;;;28.00;55.60;;;;;;5091186;28;20208;-61
2021/07/31 10:04:52;;;;;;;4.03;1.60;;;28.20;55.40;;;;;;5091034;28;20211;-61
2021/07/31 10:07:19;;;;;;;4.30;1.65;;;28.40;54.90;;;;;;5090909;28;20660;-61
2021/07/31 10:09:49;;;;;;;4.88;1.80;;;28.60;54.80;;;;;;5090390;28;20281;-61
2021/07/31 10:12:22;;;;;;;3.00;1.30;;;28.70;54.60;;;;;;5090894;28;20204;-62
2021/07/31 10:14:49;;;;;;;4.55;1.40;;;28.70;54.30;;;;;;5090563;28;20208;-62
2021/07/31 10:17:16;;;;;;;3.80;1.25;;;28.10;55.60;;;;;;5090722;28;20204;-62
2021/07/31 10:19:45;;;;;;;2.95;1.27;;;27.90;56.40;;;;;;5090454;28;20224;-62
2021/07/31 10:22:13;;;;;;;5.30;1.42;;;27.90;56.90;;;;;;5091055;28;20609;-61
2021/07/31 10:25:09;;;;;;;4.45;1.60;;;27.90;56.40;;;;;;5087299;28;20433;-58
2021/07/31 10:27:37;;;;;;;5.07;1.35;;;27.90;56.00;;;;;;5094080;28;20204;-63
2021/07/31 10:30:07;;;;;;;5.60;1.80;;;27.60;56.80;;;;;;5094200;28;20640;-60
2021/07/31 10:32:45;;;;;;;3.85;1.38;;;27.60;56.20;;;;;;5094211;28;20212;-61
2021/07/31 10:35:42;;;;;;;5.00;1.33;;;27.60;56.70;;;;;;5094307;28;20204;-62
2021/07/31 10:38:10;;;;;;;2.75;1.00;;;27.70;56.30;;;;;;5011329;28;20215;-61
2021/07/31 10:40:47;;;;;;;8.00;1.50;;;27.70;55.70;;;;;;5075485;28;20216;-59
2021/07/31 10:43:16;;;;;;;4.78;1.50;;;27.60;55.80;;;;;;5094416;28;20283;-59
2021/07/31 10:45:43;;;;;;;4.22;1.50;;;27.30;56.30;;;;;;5093612;28;20577;-62
2021/07/31 10:48:32;;;;;;;2.80;1.40;;;27.20;56.50;;;;;;5093871;28;20224;-62
2021/07/31 10:50:59;;;;;;;2.83;1.60;;;27.30;56.90;;;;;;5093879;28;20235;-62
2021/07/31 10:53:47;;;;;;;8.13;1.85;;;27.40;56.70;;;;;;5093314;28;20283;-60
2021/07/31 10:56:14;;;;;;;8.55;1.70;;;27.50;55.30;;;;;;5093889;28;20291;-60
2021/07/31 10:59:16;;;;;;;4.15;1.58;;;27.70;54.90;;;;;;5093698;28;20277;-63
2021/07/31 11:01:43;;;;;;;4.95;1.67;;;27.60;54.80;;;;;;5093573;28;20204;-60
2021/07/31 11:04:10;;;;;;;5.43;1.40;;;27.30;55.70;;;;;;5093755;28;20240;-60
2021/07/31 11:07:09;;;;;;;7.28;2.15;;;27.30;55.70;;;;;;5093999;28;20277;-59
2021/07/31 11:09:36;;;;;;;3.38;1.40;;;27.30;55.40;;;;;;5093689;28;20255;-61
2021/07/31 11:12:35;;;;;;;3.65;1.30;;;27.30;54.80;;;;;;5093967;28;20294;-59
2021/07/31 11:15:08;;;;;;;4.57;1.42;;;27.40;54.90;;;;;;5093551;28;20211;-60
2021/07/31 11:17:38;;;;;;;2.15;1.20;;;27.40;54.70;;;;;;5093685;28;20215;-60
2021/07/31 11:20:24;;;;;;;4.18;1.70;;;27.40;54.70;;;;;;5093358;28;20269;-61
2021/07/31 11:22:51;;;;;;;3.97;1.45;;;27.40;55.60;;;;;;5093236;28;20227;-61
2021/07/31 11:25:20;;;;;;;3.90;1.50;;;27.50;55.70;;;;;;5092994;28;20632;-61
2021/07/31 11:27:56;;;;;;;3.03;1.30;;;27.60;55.90;;;;;;5092928;28;20204;-61
2021/07/31 11:30:39;;;;;;;5.05;1.85;;;27.50;55.30;;;;;;5093304;28;20199;-59
2021/07/31 11:33:33;;;;;;;2.42;1.40;;;27.10;56.00;;;;;;5093069;28;20700;-62
2021/07/31 11:36:12;;;;;;;3.03;1.63;;;26.90;56.30;;;;;;5045624;28;20265;-59
2021/07/31 11:38:40;;;;;;;3.58;1.48;;;26.90;56.60;;;;;;5091766;28;20311;-63
2021/07/31 11:41:11;;;;;;;4.45;1.40;;;27.00;56.20;;;;;;5092776;28;20207;-61
2021/07/31 11:43:52;;;;;;;5.57;1.50;;;26.80;56.70;;;;;;5092953;28;20257;-61
2021/07/31 11:46:31;;;;;;;5.80;1.50;;;26.60;56.90;;;;;;5092825;28;20211;-61
2021/07/31 11:48:59;;;;;;;4.03;1.20;;;26.60;57.50;;;;;;5092593;28;20224;-61
2021/07/31 11:51:27;;;;;;;4.97;1.70;;;26.50;57.40;;;;;;5092745;28;20208;-60
2021/07/31 11:53:54;;;;;;;6.20;1.55;;;26.60;58.20;;;;;;5092745;28;20208;-61
2021/07/31 11:56:22;;;;;;;3.13;1.50;;;26.60;57.10;;;;;;5093531;28;20207;-62
2021/07/31 11:58:51;;;;;;;2.90;1.40;;;26.60;57.00;;;;;;5093723;28;20742;-61
2021/07/31 12:01:18;;;;;;;3.58;1.40;;;26.70;57.30;;;;;;5094079;28;20625;-60
2021/07/31 12:03:49;;;;;;;2.78;1.45;;;26.70;56.10;;;;;;5094144;28;20204;-60
2021/07/31 12:06:46;;;;;;;4.10;1.45;;;26.80;57.10;;;;;;5093833;28;20204;-60
2021/07/31 12:09:23;;;;;;;4.70;1.52;;;26.90;56.30;;;;;;5093982;28;20314;-61
2021/07/31 12:11:52;;;;;;;2.88;1.35;;;26.90;56.20;;;;;;5094135;28;20215;-60
2021/07/31 12:14:37;;;;;;;5.68;1.58;;;26.80;56.80;;;;;;5093976;28;20647;-61
2021/07/31 12:17:14;;;;;;;3.80;1.77;;;26.70;57.10;;;;;;5093855;28;20208;-62
2021/07/31 12:19:43;;;;;;;4.25;1.70;;;26.60;56.90;;;;;;5092642;28;20307;-60
2021/07/31 12:22:12;;;;;;;2.58;1.35;;;26.50;57.60;;;;;;5092688;28;20208;-60
2021/07/31 12:24:38;;;;;;;4.30;2.00;;;26.20;57.90;;;;;;5092339;28;20208;-61
2021/07/31 12:27:05;;;;;;;3.00;1.15;;;26.00;58.50;;;;;;5091832;28;20265;-61
2021/07/31 12:29:36;;;;;;;5.65;1.55;;;26.10;58.80;;;;;;5092042;28;20258;-59
2021/07/31 12:32:22;;;;;;;4.35;1.90;;;26.20;57.90;;;;;;5092309;28;20211;-61
2021/07/31 12:34:51;;;;;;;3.90;1.70;;;26.40;58.50;;;;;;5091811;28;20212;-60
2021/07/31 12:37:18;;;;;;;2.95;1.70;;;26.60;58.10;;;;;;5091870;28;20207;-61
2021/07/31 12:39:45;;;;;;;2.53;1.50;;;26.80;58.20;;;;;;5091480;28;20510;-60
2021/07/31 12:42:12;;;;;;;3.17;1.60;;;27.10;56.50;;;;;;5092265;28;20211;-60
2021/07/31 12:44:39;;;;;;;4.05;1.60;;;27.20;56.70;;;;;;5091590;28;20257;-59
2021/07/31 12:47:06;;;;;;;4.30;1.58;;;27.30;56.50;;;;;;5092187;28;20232;-60
2021/07/31 12:49:33;;;;;;;5.82;1.83;;;27.50;56.10;;;;;;5091447;28;20228;-61
2021/07/31 12:52:02;;;;;;;5.28;1.30;;;27.70;55.40;;;;;;5091372;28;20236;-59
2021/07/31 12:54:29;;;;;;;2.50;1.52;;;27.80;55.10;;;;;;5091564;28;20261;-60